createdAt,value
2022-08-22T00:00:58.085Z,4.10
2022-08-22T00:01:57.900Z,3.50
2022-08-22T00:03:01.342Z,2.90
2022-08-22T00:03:17.386Z,4.20
2022-08-22T00:03:58.845Z,3.50
2022-08-22T00:04:57.856Z,3.70
2022-08-22T00:05:58.058Z,4.00
2022-08-22T00:06:57.796Z,3.70
2022-08-22T00:07:57.958Z,3.60
2022-08-22T00:08:57.794Z,3.80
2022-08-22T00:09:57.776Z,4.00
2022-08-22T00:10:57.771Z,4.00
2022-08-22T00:11:57.906Z,3.90
2022-08-22T00:12:57.736Z,3.70
2022-08-22T00:14:01.446Z,3.70
2022-08-22T00:14:57.716Z,4.00
2022-08-22T00:15:57.726Z,4.50
2022-08-22T00:16:57.883Z,4.00
2022-08-22T00:17:57.981Z,4.00
2022-08-22T00:18:57.684Z,3.90
2022-08-22T00:19:57.677Z,4.30
2022-08-22T00:20:57.656Z,3.90
2022-08-22T00:21:57.842Z,4.30
2022-08-22T00:22:57.655Z,4.00
2022-08-22T00:23:57.618Z,4.20
2022-08-22T00:24:57.646Z,3.60
2022-08-22T00:25:57.601Z,4.30
2022-08-22T00:26:57.737Z,4.30
2022-08-22T00:27:57.757Z,3.90
2022-08-22T00:28:57.574Z,4.10
2022-08-22T00:29:57.571Z,4.30
2022-08-22T00:30:57.559Z,4.00
2022-08-22T00:31:57.759Z,4.10
2022-08-22T00:32:57.532Z,4.00
2022-08-22T00:33:57.511Z,4.10
2022-08-22T00:34:57.515Z,4.00
2022-08-22T00:35:57.530Z,4.20
2022-08-22T00:36:57.487Z,4.10
2022-08-22T00:37:57.820Z,3.80
2022-08-22T00:38:57.479Z,3.90
2022-08-22T00:39:57.488Z,3.60
2022-08-22T00:40:57.449Z,4.00
2022-08-22T00:41:57.450Z,4.30
2022-08-22T00:42:57.576Z,4.00
2022-08-22T00:43:57.413Z,3.70
2022-08-22T00:44:57.388Z,4.00
2022-08-22T00:45:57.391Z,3.60
2022-08-22T00:46:57.367Z,3.60
2022-08-22T00:47:57.679Z,3.70
2022-08-22T00:48:57.342Z,4.00
2022-08-22T00:49:57.359Z,3.70
2022-08-22T00:50:57.539Z,3.90
2022-08-22T00:51:57.317Z,4.70
2022-08-22T00:52:57.313Z,3.90
2022-08-22T00:53:57.301Z,3.80
2022-08-22T00:54:57.287Z,3.80
2022-08-22T00:55:57.999Z,3.90
2022-08-22T00:56:57.258Z,3.80
2022-08-22T00:57:57.309Z,4.00
2022-08-22T00:58:57.248Z,4.30
2022-08-22T00:59:57.227Z,3.90
2022-08-22T01:00:57.286Z,4.00
2022-08-22T01:01:57.639Z,4.10
2022-08-22T01:02:57.212Z,3.70
2022-08-22T01:03:57.188Z,3.70
2022-08-22T01:04:57.183Z,3.60
2022-08-22T01:05:57.197Z,3.60
2022-08-22T01:06:57.166Z,3.80
2022-08-22T01:07:57.622Z,3.70
2022-08-22T01:08:57.130Z,3.70
2022-08-22T01:09:57.119Z,4.20
2022-08-22T01:10:57.115Z,3.60
2022-08-22T01:11:57.113Z,3.90
2022-08-22T01:12:57.087Z,4.10
2022-08-22T01:13:57.246Z,3.80
2022-08-22T01:14:57.068Z,4.20
2022-08-22T01:15:57.064Z,3.60
2022-08-22T01:16:57.048Z,3.80
2022-08-22T01:17:57.303Z,4.00
2022-08-22T01:18:57.259Z,3.90
2022-08-22T01:19:57.018Z,4.00
2022-08-22T01:20:57.007Z,4.30
2022-08-22T01:21:57.002Z,4.00
2022-08-22T01:22:57.001Z,3.90
2022-08-22T01:23:56.974Z,4.00
2022-08-22T01:24:57.148Z,3.80
2022-08-22T01:25:56.949Z,3.70
2022-08-22T01:26:56.956Z,4.10
2022-08-22T01:27:57.047Z,4.20
2022-08-22T01:28:56.906Z,3.80
2022-08-22T01:29:56.906Z,4.30
2022-08-22T01:30:57.051Z,4.20
2022-08-22T01:31:56.883Z,3.90
2022-08-22T01:32:56.994Z,4.00
2022-08-22T01:33:56.865Z,3.60
2022-08-22T01:34:56.853Z,3.90
2022-08-22T01:35:56.851Z,4.10
2022-08-22T01:36:57.009Z,3.70
2022-08-22T01:37:57.038Z,4.40
2022-08-22T01:38:56.819Z,4.00
2022-08-22T01:39:56.865Z,3.70
2022-08-22T01:40:56.781Z,3.80
2022-08-22T01:41:56.780Z,3.80
2022-08-22T01:42:56.922Z,4.30
2022-08-22T01:44:00.519Z,4.30
2022-08-22T01:44:56.743Z,4.10
2022-08-22T01:45:56.731Z,4.00
2022-08-22T01:46:56.722Z,4.20
2022-08-22T01:47:56.722Z,3.80
2022-08-22T01:48:56.872Z,4.20
2022-08-22T01:49:56.703Z,4.40
2022-08-22T01:50:56.683Z,4.00
2022-08-22T01:51:56.662Z,4.70
2022-08-22T01:52:56.652Z,3.90
2022-08-22T01:53:56.651Z,3.90
2022-08-22T01:54:56.813Z,4.00
2022-08-22T01:55:56.632Z,4.40
2022-08-22T01:56:56.623Z,4.00
2022-08-22T01:57:56.687Z,3.60
2022-08-22T01:58:56.583Z,4.00
2022-08-22T01:59:56.728Z,4.20
2022-08-22T02:00:56.588Z,4.20
2022-08-22T02:01:56.566Z,4.20
2022-08-22T02:02:56.543Z,4.20
2022-08-22T02:03:56.541Z,4.20
2022-08-22T02:06:14.783Z,4.50
2022-08-22T02:07:14.408Z,4.50
2022-08-22T02:08:14.392Z,4.30
2022-08-22T02:09:14.387Z,4.20
2022-08-22T02:10:14.780Z,4.30
2022-08-22T02:11:14.370Z,3.80
2022-08-22T02:12:21.652Z,3.70
2022-08-22T02:13:15.346Z,4.20
2022-08-22T02:14:14.327Z,4.40
2022-08-22T02:15:14.323Z,4.20
2022-08-22T02:16:14.997Z,4.10
2022-08-22T02:17:14.321Z,4.00
2022-08-22T02:18:14.328Z,4.40
2022-08-22T02:19:14.280Z,4.60
2022-08-22T02:20:14.292Z,4.20
2022-08-22T02:21:14.402Z,5.20
2022-08-22T02:22:14.263Z,4.40
2022-08-22T02:23:14.237Z,4.10
2022-08-22T02:24:14.232Z,4.20
2022-08-22T02:25:14.219Z,4.20
2022-08-22T02:26:14.353Z,4.30
2022-08-22T02:27:14.225Z,4.10
2022-08-22T02:28:14.176Z,4.20
2022-08-22T02:29:14.174Z,3.70
2022-08-22T02:30:14.157Z,4.20
2022-08-22T02:31:16.668Z,4.00
2022-08-22T02:32:14.143Z,3.50
2022-08-22T02:33:14.136Z,4.00
2022-08-22T02:34:14.143Z,4.40
2022-08-22T02:35:14.104Z,3.60
2022-08-22T02:36:14.101Z,3.90
2022-08-22T02:37:14.269Z,4.00
2022-08-22T02:38:14.071Z,4.00
2022-08-22T02:39:14.082Z,3.80
2022-08-22T02:40:14.150Z,4.90
2022-08-22T02:41:14.047Z,4.20
2022-08-22T02:42:14.575Z,3.50
2022-08-22T02:43:14.029Z,4.30
2022-08-22T02:44:14.005Z,4.10
2022-08-22T02:45:14.009Z,4.30
2022-08-22T02:46:13.983Z,4.40
2022-08-22T02:47:13.988Z,4.10
2022-08-22T02:48:14.123Z,4.40
2022-08-22T02:49:13.968Z,4.10
2022-08-22T02:50:13.943Z,4.30
2022-08-22T02:51:13.930Z,4.10
2022-08-22T02:52:13.921Z,4.00
2022-08-22T02:53:14.069Z,3.60
2022-08-22T02:54:13.920Z,4.00
2022-08-22T02:55:13.930Z,4.20
2022-08-22T02:56:13.873Z,4.00
2022-08-22T02:57:14.217Z,4.20
2022-08-22T02:58:14.193Z,4.60
2022-08-22T02:59:13.842Z,4.00
2022-08-22T03:00:31.107Z,4.00
2022-08-22T03:01:14.855Z,4.00
2022-08-22T03:02:13.831Z,4.70
2022-08-22T03:03:13.809Z,4.30
2022-08-22T03:04:13.948Z,4.10
2022-08-22T03:05:13.788Z,4.20
2022-08-22T03:06:13.766Z,3.80
2022-08-22T03:07:13.764Z,4.10
2022-08-22T03:08:13.758Z,4.50
2022-08-22T03:09:13.889Z,4.40
2022-08-22T03:10:13.772Z,4.40
2022-08-22T03:11:13.719Z,4.40
2022-08-22T03:12:13.716Z,4.60
2022-08-22T03:13:13.696Z,4.80
2022-08-22T03:14:13.850Z,4.60
2022-08-22T03:15:13.681Z,4.40
2022-08-22T03:16:13.668Z,5.50
2022-08-22T03:17:13.681Z,5.30
2022-08-22T03:18:13.664Z,5.10
2022-08-22T03:19:18.664Z,5.50
2022-08-22T03:20:14.620Z,4.90
2022-08-22T03:21:13.610Z,4.70
2022-08-22T03:22:13.610Z,5.50
2022-08-22T03:23:13.593Z,5.40
2022-08-22T03:24:13.572Z,6.20
2022-08-22T03:25:13.731Z,5.70
2022-08-22T03:26:13.566Z,6.30
2022-08-22T03:27:13.560Z,6.30
2022-08-22T03:28:14.529Z,6.50
2022-08-22T03:29:13.526Z,6.10
2022-08-22T03:30:13.661Z,5.50
2022-08-22T03:31:13.511Z,5.80
2022-08-22T03:32:13.491Z,6.50
2022-08-22T03:33:13.476Z,5.70
2022-08-22T03:34:13.468Z,6.00
2022-08-22T03:35:13.621Z,5.90
2022-08-22T03:36:13.450Z,5.70
2022-08-22T03:37:13.453Z,5.40
2022-08-22T03:38:13.430Z,5.60
2022-08-22T03:39:17.114Z,5.30
2022-08-22T03:40:13.602Z,5.50
2022-08-22T03:41:13.401Z,5.40
2022-08-22T03:42:13.375Z,5.00
2022-08-22T03:43:13.381Z,4.90
2022-08-22T03:44:13.350Z,5.10
2022-08-22T03:45:13.349Z,5.00
2022-08-22T03:46:13.669Z,5.10
2022-08-22T03:47:13.341Z,4.70
2022-08-22T03:48:13.325Z,4.80
2022-08-22T03:49:13.301Z,4.60
2022-08-22T03:50:13.299Z,4.90
2022-08-22T03:51:13.290Z,5.50
2022-08-22T03:52:13.431Z,4.80
2022-08-22T03:53:18.396Z,4.80
2022-08-22T03:54:14.255Z,5.10
2022-08-22T03:55:13.240Z,5.00
2022-08-22T03:56:13.253Z,4.60
2022-08-22T03:57:13.217Z,4.50
2022-08-22T03:58:19.123Z,4.70
2022-08-22T03:59:14.212Z,4.80
2022-08-22T04:00:13.198Z,4.30
2022-08-22T04:01:13.213Z,4.40
2022-08-22T04:02:42.061Z,4.80
2022-08-22T04:03:14.447Z,4.30
2022-08-22T04:04:13.142Z,4.40
2022-08-22T04:05:13.142Z,4.50
2022-08-22T04:06:13.123Z,4.50
2022-08-22T04:07:28.018Z,4.80
2022-08-22T04:08:14.101Z,5.20
2022-08-22T04:09:13.266Z,5.10
2022-08-22T04:10:13.082Z,4.70
2022-08-22T04:11:13.083Z,4.70
2022-08-22T04:12:13.077Z,4.80
2022-08-22T04:13:13.054Z,5.00
2022-08-22T04:14:13.044Z,4.80
2022-08-22T04:15:13.203Z,4.50
2022-08-22T04:16:13.300Z,4.60
2022-08-22T04:17:13.032Z,4.90
2022-08-22T04:18:12.994Z,5.20
2022-08-22T04:19:12.987Z,4.50
2022-08-22T04:20:12.974Z,5.20
2022-08-22T04:21:13.113Z,5.00
2022-08-22T04:22:13.098Z,4.80
2022-08-22T04:23:12.933Z,4.90
2022-08-22T04:24:12.936Z,5.10
2022-08-22T04:25:12.920Z,4.80
2022-08-22T04:26:12.971Z,5.00
2022-08-22T04:27:13.060Z,5.00
2022-08-22T04:28:12.879Z,5.70
2022-08-22T04:29:12.875Z,5.40
2022-08-22T04:30:12.873Z,5.70
2022-08-22T04:31:12.853Z,5.80
2022-08-22T04:32:14.749Z,5.90
2022-08-22T04:33:12.986Z,5.50
2022-08-22T04:34:12.822Z,5.40
2022-08-22T04:35:12.811Z,5.70
2022-08-22T04:36:12.808Z,5.40
2022-08-22T04:37:12.788Z,5.40
2022-08-22T04:38:12.923Z,5.60
2022-08-22T04:39:12.764Z,5.20
2022-08-22T04:40:12.769Z,5.50
2022-08-22T04:41:12.752Z,6.50
2022-08-22T04:42:31.766Z,5.50
2022-08-22T04:43:13.873Z,5.50
2022-08-22T04:44:13.439Z,5.30
2022-08-22T04:45:12.707Z,5.70
2022-08-22T04:46:12.685Z,5.60
2022-08-22T04:47:12.674Z,5.90
2022-08-22T04:48:12.665Z,5.50
2022-08-22T04:49:12.804Z,5.80
2022-08-22T04:50:12.639Z,5.60
2022-08-22T04:51:12.636Z,6.10
2022-08-22T04:52:12.622Z,5.70
2022-08-22T04:53:12.615Z,5.90
2022-08-22T04:54:12.749Z,5.60
2022-08-22T04:55:12.593Z,6.20
2022-08-22T04:56:12.578Z,6.60
2022-08-22T04:57:12.566Z,6.50
2022-08-22T04:58:12.553Z,6.30
2022-08-22T04:59:12.549Z,5.90
2022-08-22T05:00:12.692Z,6.30
2022-08-22T05:01:12.531Z,6.70
2022-08-22T05:02:12.542Z,6.10
2022-08-22T05:03:12.504Z,6.10
2022-08-22T05:04:12.494Z,5.80
2022-08-22T05:05:13.214Z,6.40
2022-08-22T05:06:12.473Z,6.70
2022-08-22T05:07:12.465Z,6.60
2022-08-22T05:08:12.460Z,6.10
2022-08-22T05:09:15.997Z,6.10
2022-08-22T05:10:12.735Z,5.70
2022-08-22T05:11:12.419Z,7.20
2022-08-22T05:12:12.417Z,5.80
2022-08-22T05:13:12.388Z,6.30
2022-08-22T05:14:12.399Z,6.50
2022-08-22T05:15:12.407Z,6.20
2022-08-22T05:16:12.697Z,6.40
2022-08-22T05:17:12.357Z,6.10
2022-08-22T05:18:12.344Z,6.50
2022-08-22T05:19:16.459Z,6.30
2022-08-22T05:20:12.325Z,6.30
2022-08-22T05:21:13.944Z,5.40
2022-08-22T05:22:12.456Z,5.40
2022-08-22T05:23:17.049Z,6.10
2022-08-22T05:24:13.298Z,5.40
2022-08-22T05:25:12.277Z,5.60
2022-08-22T05:26:12.255Z,5.50
2022-08-22T05:27:12.246Z,5.20
2022-08-22T05:28:12.436Z,5.80
2022-08-22T05:29:12.216Z,5.70
2022-08-22T05:30:12.205Z,5.50
2022-08-22T05:31:12.206Z,7.00
2022-08-22T05:32:12.222Z,6.90
2022-08-22T05:33:12.185Z,7.20
2022-08-22T05:34:12.343Z,7.70
2022-08-22T05:35:12.181Z,7.80
2022-08-22T05:36:12.154Z,7.20
2022-08-22T05:37:12.145Z,7.00
2022-08-22T05:38:12.176Z,7.30
2022-08-22T05:39:12.275Z,7.30
2022-08-22T05:40:12.141Z,6.90
2022-08-22T05:41:12.108Z,7.30
2022-08-22T05:42:12.085Z,7.70
2022-08-22T05:43:12.117Z,6.90
2022-08-22T05:44:12.310Z,6.70
2022-08-22T05:45:12.316Z,6.00
2022-08-22T05:46:12.055Z,6.10
2022-08-22T05:47:12.049Z,6.00
2022-08-22T05:48:12.033Z,6.70
2022-08-22T05:49:12.017Z,6.40
2022-08-22T05:50:12.165Z,6.30
2022-08-22T05:51:12.001Z,6.00
2022-08-22T05:52:11.994Z,6.60
2022-08-22T05:53:11.965Z,5.90
2022-08-22T05:54:11.999Z,5.80
2022-08-22T05:55:11.964Z,6.10
2022-08-22T05:56:12.098Z,6.20
2022-08-22T05:57:12.084Z,5.90
2022-08-22T05:58:11.918Z,5.90
2022-08-22T05:59:11.895Z,5.80
2022-08-22T06:00:11.918Z,6.10
2022-08-22T06:01:11.876Z,6.00
2022-08-22T06:02:12.241Z,5.90
2022-08-22T06:03:11.857Z,6.20
2022-08-22T06:04:11.835Z,6.30
2022-08-22T06:05:12.257Z,5.60
2022-08-22T06:06:11.825Z,6.10
2022-08-22T06:07:11.825Z,5.80
2022-08-22T06:08:11.956Z,6.40
2022-08-22T06:09:11.786Z,6.00
2022-08-22T06:10:11.781Z,6.20
2022-08-22T06:11:11.766Z,6.50
2022-08-22T06:12:18.237Z,6.10
2022-08-22T06:13:13.024Z,5.90
2022-08-22T06:14:13.008Z,5.70
2022-08-22T06:15:12.549Z,5.60
2022-08-22T06:16:11.716Z,6.00
2022-08-22T06:17:11.706Z,5.90
2022-08-22T06:18:11.708Z,5.90
2022-08-22T06:19:19.843Z,5.80
2022-08-22T06:20:12.679Z,5.70
2022-08-22T06:21:11.661Z,5.10
2022-08-22T06:22:11.767Z,5.70
2022-08-22T06:23:12.642Z,5.30
2022-08-22T06:24:11.626Z,5.60
2022-08-22T06:25:11.774Z,5.40
2022-08-22T06:26:20.514Z,5.40
2022-08-22T06:27:12.589Z,5.90
2022-08-22T06:28:11.594Z,5.60
2022-08-22T06:29:11.576Z,5.90
2022-08-22T06:30:11.849Z,5.60
2022-08-22T06:31:11.557Z,6.50
2022-08-22T06:32:11.538Z,8.20
2022-08-22T06:33:12.493Z,7.40
2022-08-22T06:34:11.516Z,6.80
2022-08-22T06:35:11.687Z,6.50
2022-08-22T06:36:11.508Z,5.90
2022-08-22T06:37:11.486Z,6.00
2022-08-22T06:38:11.494Z,5.40
2022-08-22T06:39:11.500Z,5.80
2022-08-22T06:40:11.479Z,6.10
2022-08-22T06:41:11.598Z,5.80
2022-08-22T06:42:16.006Z,5.30
2022-08-22T06:43:11.418Z,5.20
2022-08-22T06:44:11.408Z,5.60
2022-08-22T06:45:11.407Z,5.50
2022-08-22T06:46:11.389Z,5.30
2022-08-22T06:47:11.601Z,5.10
2022-08-22T06:48:11.367Z,6.10
2022-08-22T06:49:11.355Z,7.20
2022-08-22T06:50:13.863Z,9.30
2022-08-22T06:51:11.335Z,7.10
2022-08-22T06:52:11.328Z,6.70
2022-08-22T06:53:11.672Z,5.80
2022-08-22T06:54:11.321Z,5.20
2022-08-22T06:55:11.303Z,5.40
2022-08-22T06:56:11.288Z,4.70
2022-08-22T06:57:11.271Z,4.70
2022-08-22T06:58:11.279Z,5.10
2022-08-22T06:59:11.407Z,4.90
2022-08-22T07:00:11.299Z,5.10
2022-08-22T07:01:11.615Z,4.60
2022-08-22T07:02:11.222Z,5.40
2022-08-22T07:03:11.210Z,5.00
2022-08-22T07:04:11.368Z,4.80
2022-08-22T07:05:11.180Z,5.40
2022-08-22T07:06:11.187Z,5.00
2022-08-22T07:07:11.167Z,5.00
2022-08-22T07:08:11.175Z,4.90
2022-08-22T07:09:11.150Z,5.00
2022-08-22T07:10:11.290Z,4.50
2022-08-22T07:11:11.130Z,5.00
2022-08-22T07:12:11.120Z,5.30
2022-08-22T07:13:11.099Z,5.30
2022-08-22T07:14:11.099Z,5.60
2022-08-22T07:15:11.078Z,5.20
2022-08-22T07:16:11.347Z,4.90
2022-08-22T07:17:11.073Z,5.10
2022-08-22T07:18:11.074Z,5.30
2022-08-22T07:19:11.051Z,4.30
2022-08-22T07:20:11.052Z,4.80
2022-08-22T07:21:11.017Z,5.10
2022-08-22T07:22:11.191Z,5.00
2022-08-22T07:23:10.990Z,4.70
2022-08-22T07:24:10.986Z,5.10
2022-08-22T07:25:10.976Z,5.30
2022-08-22T07:26:10.968Z,5.20
2022-08-22T07:27:10.954Z,5.00
2022-08-22T07:28:15.860Z,5.00
2022-08-22T07:29:11.935Z,4.70
2022-08-22T07:30:10.939Z,5.00
2022-08-22T07:31:10.912Z,4.30
2022-08-22T07:32:10.943Z,4.50
2022-08-22T07:33:26.798Z,6.30
2022-08-22T07:34:12.031Z,6.80
2022-08-22T07:35:10.864Z,7.20
2022-08-22T07:36:10.861Z,5.50
2022-08-22T07:37:10.847Z,5.30
2022-08-22T07:38:10.841Z,4.70
2022-08-22T07:39:11.232Z,5.50
2022-08-22T07:40:11.050Z,5.80
2022-08-22T07:41:10.802Z,5.30
2022-08-22T07:42:10.809Z,5.20
2022-08-22T07:43:10.781Z,5.10
2022-08-22T07:44:10.773Z,4.90
2022-08-22T07:45:10.794Z,5.00
2022-08-22T07:46:10.755Z,4.20
2022-08-22T07:47:10.739Z,5.90
2022-08-22T07:48:10.732Z,7.60
2022-08-22T07:49:10.735Z,6.90
2022-08-22T07:50:10.711Z,7.20
2022-08-22T07:51:10.851Z,8.00
2022-08-22T07:52:10.701Z,9.50
2022-08-22T07:53:10.673Z,7.10
2022-08-22T07:54:10.662Z,6.50
2022-08-22T07:55:10.653Z,6.20
2022-08-22T07:56:11.382Z,5.10
2022-08-22T07:57:11.172Z,4.60
2022-08-22T07:58:10.634Z,4.50
2022-08-22T07:59:13.128Z,4.40
2022-08-22T08:00:10.634Z,4.00
2022-08-22T08:01:10.650Z,3.60
2022-08-22T08:02:10.615Z,3.50
2022-08-22T08:03:12.371Z,3.70
2022-08-22T08:04:10.564Z,3.80
2022-08-22T08:05:10.602Z,3.20
2022-08-22T08:06:10.541Z,3.60
2022-08-22T08:07:10.585Z,3.60
2022-08-22T08:08:15.544Z,5.10
2022-08-22T08:09:11.702Z,5.70
2022-08-22T08:10:13.152Z,8.40
2022-08-22T08:11:10.483Z,6.50
2022-08-22T08:12:10.481Z,6.60
2022-08-22T08:13:10.511Z,6.50
2022-08-22T08:14:13.503Z,5.80
2022-08-22T08:15:10.697Z,6.00
2022-08-22T08:16:10.446Z,7.30
2022-08-22T08:17:10.423Z,6.60
2022-08-22T08:18:10.435Z,5.50
2022-08-22T08:19:10.449Z,4.30
2022-08-22T08:20:10.393Z,3.90
2022-08-22T08:21:10.548Z,3.70
2022-08-22T08:22:10.374Z,3.50
2022-08-22T08:23:10.382Z,3.50
2022-08-22T08:24:10.354Z,3.20
2022-08-22T08:25:10.334Z,3.60
2022-08-22T08:26:10.490Z,4.00
2022-08-22T08:27:10.319Z,3.90
2022-08-22T08:28:10.318Z,3.80
2022-08-22T08:29:10.303Z,3.10
2022-08-22T08:30:15.084Z,3.20
2022-08-22T08:31:11.424Z,3.30
2022-08-22T08:32:10.275Z,3.50
2022-08-22T08:33:24.889Z,3.10
2022-08-22T08:34:11.253Z,3.20
2022-08-22T08:35:10.232Z,3.40
2022-08-22T08:36:10.224Z,3.50
2022-08-22T08:37:10.416Z,3.10
2022-08-22T08:38:10.206Z,2.40
2022-08-22T08:39:10.197Z,2.80
2022-08-22T08:40:10.243Z,2.70
2022-08-22T08:41:10.174Z,2.90
2022-08-22T08:42:10.158Z,2.50
2022-08-22T08:43:10.898Z,2.70
2022-08-22T08:44:10.137Z,2.60
2022-08-22T08:45:10.130Z,2.20
2022-08-22T08:46:10.114Z,2.40
2022-08-22T08:47:10.109Z,2.30
2022-08-22T08:48:10.341Z,2.50
2022-08-22T08:49:10.108Z,2.50
2022-08-22T08:50:10.075Z,2.40
2022-08-22T08:51:10.065Z,2.40
2022-08-22T08:52:10.045Z,2.10
2022-08-22T08:53:10.044Z,2.20
2022-08-22T08:54:10.180Z,2.00
2022-08-22T08:55:19.610Z,2.20
2022-08-22T08:56:11.026Z,2.40
2022-08-22T08:57:10.016Z,2.20
2022-08-22T08:58:10.257Z,2.30
2022-08-22T08:59:10.515Z,2.30
2022-08-22T09:00:09.966Z,2.40
2022-08-22T09:01:09.991Z,2.20
2022-08-22T09:02:13.716Z,1.80
2022-08-22T09:03:10.934Z,2.10
2022-08-22T09:04:15.355Z,3.60
2022-08-22T09:05:11.088Z,4.60
2022-08-22T09:06:09.916Z,3.90
2022-08-22T09:07:09.887Z,4.60
2022-08-22T09:08:11.888Z,3.80
2022-08-22T09:09:09.890Z,3.00
2022-08-22T09:10:09.878Z,4.90
2022-08-22T09:11:12.074Z,5.70
2022-08-22T09:12:09.846Z,5.30
2022-08-22T09:13:12.235Z,4.20
2022-08-22T09:14:09.815Z,3.30
2022-08-22T09:15:11.833Z,3.00
2022-08-22T09:16:10.097Z,2.50
2022-08-22T09:17:09.948Z,2.20
2022-08-22T09:18:09.767Z,1.80
2022-08-22T09:19:09.797Z,1.80
2022-08-22T09:20:17.985Z,1.50
2022-08-22T09:21:10.744Z,1.80
2022-08-22T09:22:14.211Z,1.60
2022-08-22T09:23:10.074Z,2.20
2022-08-22T09:24:09.798Z,1.40
2022-08-22T09:25:09.727Z,1.80
2022-08-22T09:26:09.682Z,1.80
2022-08-22T09:27:09.669Z,1.70
2022-08-22T09:28:09.937Z,2.00
2022-08-22T09:29:09.650Z,1.50
2022-08-22T09:30:11.743Z,1.70
2022-08-22T09:32:13.219Z,1.80
2022-08-22T09:33:09.620Z,1.50
2022-08-22T09:34:09.760Z,1.60
2022-08-22T09:35:09.601Z,1.50
2022-08-22T09:36:12.186Z,1.50
2022-08-22T09:37:09.568Z,1.30
2022-08-22T09:38:09.564Z,1.30
2022-08-22T09:39:09.708Z,1.40
2022-08-22T09:40:12.245Z,1.60
2022-08-22T09:41:10.520Z,1.90
2022-08-22T09:42:09.504Z,1.60
2022-08-22T09:43:09.493Z,1.30
2022-08-22T09:44:09.494Z,1.30
2022-08-22T09:45:09.649Z,1.40
2022-08-22T09:46:09.459Z,1.70
2022-08-22T09:47:09.461Z,1.30
2022-08-22T09:48:09.441Z,1.60
2022-08-22T09:49:09.436Z,1.20
2022-08-22T09:50:09.847Z,1.80
2022-08-22T09:51:31.691Z,1.60
2022-08-22T09:52:15.466Z,1.70
2022-08-22T09:53:10.431Z,1.40
2022-08-22T09:54:09.373Z,1.30
2022-08-22T09:55:09.368Z,1.40
2022-08-22T09:56:15.164Z,1.60
2022-08-22T09:57:10.348Z,1.50
2022-08-22T09:58:11.357Z,1.60
2022-08-22T09:59:09.782Z,1.60
2022-08-22T10:00:09.303Z,1.50
2022-08-22T10:01:09.355Z,1.50
2022-08-22T10:02:15.384Z,1.50
2022-08-22T10:03:10.314Z,1.70
2022-08-22T10:04:09.272Z,1.70
2022-08-22T10:05:09.298Z,1.70
2022-08-22T10:06:09.291Z,1.80
2022-08-22T10:07:11.956Z,1.90
2022-08-22T10:08:11.353Z,1.70
2022-08-22T10:09:09.303Z,1.50
2022-08-22T10:10:09.211Z,1.70
2022-08-22T10:11:09.213Z,3.70
2022-08-22T10:12:12.780Z,2.90
2022-08-22T10:13:10.503Z,1.80
2022-08-22T10:14:09.373Z,1.80
2022-08-22T10:15:09.161Z,1.40
2022-08-22T10:16:09.132Z,1.60
2022-08-22T10:17:09.123Z,1.70
2022-08-22T10:18:10.469Z,1.60
2022-08-22T10:19:09.112Z,1.70
2022-08-22T10:20:09.442Z,1.80
2022-08-22T10:21:09.130Z,1.50
2022-08-22T10:22:09.079Z,1.90
2022-08-22T10:23:09.073Z,1.60
2022-08-22T10:24:09.058Z,1.60
2022-08-22T10:25:09.074Z,1.70
2022-08-22T10:26:09.191Z,1.70
2022-08-22T10:27:09.041Z,1.80
2022-08-22T10:28:10.592Z,1.70
2022-08-22T10:29:09.004Z,1.70
2022-08-22T10:30:09.004Z,1.50
2022-08-22T10:31:09.202Z,1.80
2022-08-22T10:32:10.795Z,1.90
2022-08-22T10:33:12.170Z,1.70
2022-08-22T10:34:08.947Z,1.60
2022-08-22T10:35:08.947Z,2.10
2022-08-22T10:36:11.779Z,1.90
2022-08-22T10:37:10.299Z,1.70
2022-08-22T10:38:10.618Z,1.70
2022-08-22T10:39:11.659Z,1.90
2022-08-22T10:40:08.940Z,1.60
2022-08-22T10:41:09.680Z,1.80
2022-08-22T10:42:08.866Z,1.70
2022-08-22T10:43:09.373Z,1.90
2022-08-22T10:44:08.845Z,1.70
2022-08-22T10:45:08.826Z,1.50
2022-08-22T10:46:12.341Z,1.60
2022-08-22T10:47:08.814Z,1.50
2022-08-22T10:48:09.041Z,2.00
2022-08-22T10:49:08.946Z,1.90
2022-08-22T10:50:11.484Z,2.20
2022-08-22T10:51:09.855Z,1.70
2022-08-22T10:52:15.731Z,1.80
2022-08-22T10:53:09.761Z,1.60
2022-08-22T10:54:09.107Z,1.80
2022-08-22T10:55:09.696Z,2.10
2022-08-22T10:56:08.726Z,1.80
2022-08-22T10:57:08.708Z,1.70
2022-08-22T10:58:08.716Z,2.20
2022-08-22T10:59:08.692Z,3.10
2022-08-22T11:00:08.827Z,5.80
2022-08-22T11:01:41.599Z,6.60
2022-08-22T11:02:09.753Z,3.50
2022-08-22T11:03:10.933Z,4.90
2022-08-22T11:04:09.679Z,3.80
2022-08-22T11:05:08.691Z,3.20
2022-08-22T11:06:08.801Z,2.40
2022-08-22T11:07:09.313Z,1.80
2022-08-22T11:08:08.695Z,1.50
2022-08-22T11:09:08.652Z,1.70
2022-08-22T11:10:08.620Z,1.80
2022-08-22T11:11:08.910Z,2.10
2022-08-22T11:12:08.614Z,1.70
2022-08-22T11:13:08.644Z,1.90
2022-08-22T11:14:08.592Z,1.80
2022-08-22T11:15:08.592Z,1.80
2022-08-22T11:16:08.562Z,1.90
2022-08-22T11:17:27.353Z,2.00
2022-08-22T11:18:10.743Z,1.90
2022-08-22T11:19:15.487Z,2.10
2022-08-22T11:20:09.509Z,1.90
2022-08-22T11:21:08.521Z,1.80
2022-08-22T11:22:08.508Z,1.80
2022-08-22T11:23:12.482Z,1.90
2022-08-22T11:24:08.493Z,1.80
2022-08-22T11:25:11.298Z,1.90
2022-08-22T11:26:08.425Z,1.80
2022-08-22T11:27:08.453Z,1.70
2022-08-22T11:28:08.424Z,1.70
2022-08-22T11:29:14.035Z,2.00
2022-08-22T11:30:09.411Z,1.90
2022-08-22T11:31:08.331Z,1.80
2022-08-22T11:32:08.329Z,1.80
2022-08-22T11:33:08.443Z,1.90
2022-08-22T11:34:08.299Z,2.00
2022-08-22T11:35:09.323Z,1.70
2022-08-22T11:36:08.287Z,2.20
2022-08-22T11:37:11.705Z,2.20
2022-08-22T11:38:10.971Z,1.90
2022-08-22T11:39:13.758Z,1.60
2022-08-22T11:40:11.841Z,1.80
2022-08-22T11:41:08.228Z,1.80
2022-08-22T11:42:08.222Z,2.10
2022-08-22T11:43:08.380Z,1.70
2022-08-22T11:44:09.190Z,1.90
2022-08-22T11:45:08.184Z,2.00
2022-08-22T11:46:08.183Z,1.80
2022-08-22T11:47:08.171Z,1.80
2022-08-22T11:48:08.177Z,2.10
2022-08-22T11:49:08.307Z,1.80
2022-08-22T11:50:13.952Z,2.20
2022-08-22T11:51:13.287Z,2.00
2022-08-22T11:52:08.541Z,1.90
2022-08-22T11:53:08.112Z,2.00
2022-08-22T11:54:08.503Z,1.90
2022-08-22T11:55:08.089Z,1.70
2022-08-22T11:56:08.064Z,2.10
2022-08-22T11:57:08.075Z,2.80
2022-08-22T11:58:08.045Z,3.70
2022-08-22T11:59:08.034Z,2.70
2022-08-22T12:00:08.219Z,2.80
2022-08-22T12:01:11.758Z,1.90
2022-08-22T12:02:09.089Z,1.90
2022-08-22T12:03:08.006Z,1.80
2022-08-22T12:04:09.851Z,2.00
2022-08-22T12:05:07.973Z,2.00
2022-08-22T12:06:08.136Z,1.80
2022-08-22T12:07:07.953Z,1.80
2022-08-22T12:08:07.938Z,1.80
2022-08-22T12:09:07.924Z,1.60
2022-08-22T12:10:07.915Z,1.50
2022-08-22T12:11:09.064Z,1.70
2022-08-22T12:12:07.905Z,1.70
2022-08-22T12:13:07.885Z,1.60
2022-08-22T12:14:07.874Z,1.50
2022-08-22T12:15:08.899Z,1.80
2022-08-22T12:16:07.895Z,1.60
2022-08-22T12:17:08.124Z,1.80
2022-08-22T12:18:07.833Z,1.60
2022-08-22T12:19:07.828Z,1.60
2022-08-22T12:20:16.993Z,1.70
2022-08-22T12:21:09.110Z,1.40
2022-08-22T12:22:07.791Z,1.50
2022-08-22T12:23:07.981Z,1.70
2022-08-22T12:24:11.309Z,2.00
2022-08-22T12:25:08.767Z,1.50
2022-08-22T12:26:10.803Z,1.90
2022-08-22T12:27:08.147Z,2.10
2022-08-22T12:28:07.716Z,2.10
2022-08-22T12:29:15.213Z,1.70
2022-08-22T12:30:15.158Z,1.60
2022-08-22T12:31:08.700Z,1.50
2022-08-22T12:32:07.759Z,1.60
2022-08-22T12:33:07.679Z,1.90
2022-08-22T12:34:07.657Z,1.70
2022-08-22T12:35:13.701Z,1.60
2022-08-22T12:36:09.525Z,1.40
2022-08-22T12:37:08.627Z,1.90
2022-08-22T12:38:28.390Z,1.80
2022-08-22T12:39:08.607Z,4.40
2022-08-22T12:40:07.665Z,3.80
2022-08-22T12:41:08.212Z,2.60
2022-08-22T12:42:07.736Z,2.00
2022-08-22T12:43:07.566Z,1.90
2022-08-22T12:44:07.559Z,2.00
2022-08-22T12:45:08.544Z,1.90
2022-08-22T12:46:07.542Z,1.80
2022-08-22T12:47:09.206Z,1.30
2022-08-22T12:48:07.503Z,1.70
2022-08-22T12:49:08.111Z,1.60
2022-08-22T12:50:07.495Z,1.70
2022-08-22T12:51:17.409Z,1.60
2022-08-22T12:52:08.466Z,1.80
2022-08-22T12:53:07.614Z,1.80
2022-08-22T12:54:07.462Z,1.60
2022-08-22T12:55:07.429Z,2.50
2022-08-22T12:56:10.313Z,3.50
2022-08-22T12:57:10.590Z,2.50
2022-08-22T12:58:08.719Z,2.60
2022-08-22T12:59:07.387Z,1.90
2022-08-22T13:00:07.372Z,1.60
2022-08-22T13:01:07.432Z,1.80
2022-08-22T13:02:07.364Z,1.40
2022-08-22T13:03:07.346Z,1.60
2022-08-22T13:04:08.295Z,1.70
2022-08-22T13:05:07.359Z,1.50
2022-08-22T13:06:07.754Z,2.00
2022-08-22T13:07:08.309Z,2.70
2022-08-22T13:08:07.487Z,2.90
2022-08-22T13:09:10.029Z,6.30
2022-08-22T13:10:07.265Z,4.40
2022-08-22T13:11:09.800Z,2.80
2022-08-22T13:12:08.242Z,2.20
2022-08-22T13:13:12.615Z,1.60
2022-08-22T13:14:08.410Z,1.60
2022-08-22T13:15:10.934Z,1.60
2022-08-22T13:16:07.200Z,1.60
2022-08-22T13:17:23.866Z,1.40
2022-08-22T13:18:28.710Z,1.10
2022-08-22T13:19:08.172Z,1.40
2022-08-22T13:20:08.313Z,1.40